sensor_id;sensor_type;location;lat;lon;timestamp;temperature;humidity
21108;DHT22;10712;52.944;9.098;2024-01-27T00:01:50;5.80;86.70
21108;DHT22;10712;52.944;9.098;2024-01-27T00:04:16;5.80;86.80
21108;DHT22;10712;52.944;9.098;2024-01-27T00:06:42;5.80;86.60
21108;DHT22;10712;52.944;9.098;2024-01-27T00:09:08;5.70;86.60
21108;DHT22;10712;52.944;9.098;2024-01-27T00:11:34;5.70;86.60
21108;DHT22;10712;52.944;9.098;2024-01-27T00:14:00;5.70;86.70
21108;DHT22;10712;52.944;9.098;2024-01-27T00:16:26;5.70;86.50
21108;DHT22;10712;52.944;9.098;2024-01-27T00:18:52;5.60;86.60
21108;DHT22;10712;52.944;9.098;2024-01-27T00:21:18;5.60;86.60
21108;DHT22;10712;52.944;9.098;2024-01-27T00:23:43;5.60;86.70
21108;DHT22;10712;52.944;9.098;2024-01-27T00:26:09;5.50;86.70
21108;DHT22;10712;52.944;9.098;2024-01-27T00:28:36;5.50;87.00
21108;DHT22;10712;52.944;9.098;2024-01-27T00:31:02;5.40;87.10
21108;DHT22;10712;52.944;9.098;2024-01-27T00:33:28;5.40;87.20
21108;DHT22;10712;52.944;9.098;2024-01-27T00:35:54;5.40;87.10
21108;DHT22;10712;52.944;9.098;2024-01-27T00:38:19;5.40;87.20
21108;DHT22;10712;52.944;9.098;2024-01-27T00:40:45;5.30;87.20
21108;DHT22;10712;52.944;9.098;2024-01-27T00:43:11;5.30;87.30
21108;DHT22;10712;52.944;9.098;2024-01-27T00:45:37;5.30;87.20
21108;DHT22;10712;52.944;9.098;2024-01-27T00:48:02;5.20;87.30
21108;DHT22;10712;52.944;9.098;2024-01-27T00:50:28;5.20;87.40
21108;DHT22;10712;52.944;9.098;2024-01-27T00:52:54;5.20;87.50
21108;DHT22;10712;52.944;9.098;2024-01-27T00:55:20;5.20;87.60
21108;DHT22;10712;52.944;9.098;2024-01-27T00:57:46;5.10;87.70
21108;DHT22;10712;52.944;9.098;2024-01-27T01:00:12;5.10;87.80
21108;DHT22;10712;52.944;9.098;2024-01-27T01:02:38;5.10;87.80
21108;DHT22;10712;52.944;9.098;2024-01-27T01:05:04;5.10;87.80
21108;DHT22;10712;52.944;9.098;2024-01-27T01:07:31;5.10;87.90
21108;DHT22;10712;52.944;9.098;2024-01-27T01:09:57;5.10;87.80
21108;DHT22;10712;52.944;9.098;2024-01-27T01:12:23;5.00;87.80
21108;DHT22;10712;52.944;9.098;2024-01-27T01:14:51;5.00;87.80
21108;DHT22;10712;52.944;9.098;2024-01-27T01:17:17;5.00;87.80
21108;DHT22;10712;52.944;9.098;2024-01-27T01:19:43;5.00;87.80
21108;DHT22;10712;52.944;9.098;2024-01-27T01:22:09;4.90;88.00
21108;DHT22;10712;52.944;9.098;2024-01-27T01:24:35;4.90;88.10
21108;DHT22;10712;52.944;9.098;2024-01-27T01:27:00;4.90;88.20
21108;DHT22;10712;52.944;9.098;2024-01-27T01:29:26;4.90;88.30
21108;DHT22;10712;52.944;9.098;2024-01-27T01:31:53;4.80;88.30
21108;DHT22;10712;52.944;9.098;2024-01-27T01:34:18;4.80;88.30
21108;DHT22;10712;52.944;9.098;2024-01-27T01:36:44;4.80;88.30
21108;DHT22;10712;52.944;9.098;2024-01-27T01:39:11;4.80;88.40
21108;DHT22;10712;52.944;9.098;2024-01-27T01:41:38;4.80;88.50
21108;DHT22;10712;52.944;9.098;2024-01-27T01:44:05;4.70;88.40
21108;DHT22;10712;52.944;9.098;2024-01-27T01:46:32;4.70;88.50
21108;DHT22;10712;52.944;9.098;2024-01-27T01:48:59;4.60;88.60
21108;DHT22;10712;52.944;9.098;2024-01-27T01:51:27;4.60;88.70
21108;DHT22;10712;52.944;9.098;2024-01-27T01:53:57;4.60;88.90
21108;DHT22;10712;52.944;9.098;2024-01-27T01:56:24;4.60;88.90
21108;DHT22;10712;52.944;9.098;2024-01-27T01:58:50;4.60;88.80
21108;DHT22;10712;52.944;9.098;2024-01-27T02:01:17;4.60;88.60
21108;DHT22;10712;52.944;9.098;2024-01-27T02:03:56;4.60;88.70
21108;DHT22;10712;52.944;9.098;2024-01-27T02:06:23;4.60;88.90
21108;DHT22;10712;52.944;9.098;2024-01-27T02:08:50;4.50;89.00
21108;DHT22;10712;52.944;9.098;2024-01-27T02:11:16;4.50;89.00
21108;DHT22;10712;52.944;9.098;2024-01-27T02:13:43;4.50;89.10
21108;DHT22;10712;52.944;9.098;2024-01-27T02:16:09;4.50;89.10
21108;DHT22;10712;52.944;9.098;2024-01-27T02:18:35;4.50;89.10
21108;DHT22;10712;52.944;9.098;2024-01-27T02:21:01;4.40;89.20
21108;DHT22;10712;52.944;9.098;2024-01-27T02:23:27;4.40;89.10
21108;DHT22;10712;52.944;9.098;2024-01-27T02:25:53;4.40;89.30
21108;DHT22;10712;52.944;9.098;2024-01-27T02:28:19;4.40;89.40
21108;DHT22;10712;52.944;9.098;2024-01-27T02:30:45;4.40;89.60
21108;DHT22;10712;52.944;9.098;2024-01-27T02:33:11;4.40;89.60
21108;DHT22;10712;52.944;9.098;2024-01-27T02:35:37;4.40;89.60
21108;DHT22;10712;52.944;9.098;2024-01-27T02:38:03;4.40;89.60
21108;DHT22;10712;52.944;9.098;2024-01-27T02:40:29;4.40;89.60
21108;DHT22;10712;52.944;9.098;2024-01-27T02:42:54;4.40;89.40
21108;DHT22;10712;52.944;9.098;2024-01-27T02:45:20;4.40;89.60
21108;DHT22;10712;52.944;9.098;2024-01-27T02:47:46;4.40;89.60
21108;DHT22;10712;52.944;9.098;2024-01-27T02:50:12;4.40;89.60
21108;DHT22;10712;52.944;9.098;2024-01-27T02:52:38;4.40;89.40
21108;DHT22;10712;52.944;9.098;2024-01-27T02:55:04;4.30;89.40
21108;DHT22;10712;52.944;9.098;2024-01-27T02:57:30;4.30;89.40
21108;DHT22;10712;52.944;9.098;2024-01-27T02:59:56;4.30;89.40
21108;DHT22;10712;52.944;9.098;2024-01-27T03:02:22;4.30;89.40
21108;DHT22;10712;52.944;9.098;2024-01-27T03:04:48;4.30;89.40
21108;DHT22;10712;52.944;9.098;2024-01-27T03:07:14;4.30;89.40
21108;DHT22;10712;52.944;9.098;2024-01-27T03:09:39;4.30;89.40
21108;DHT22;10712;52.944;9.098;2024-01-27T03:12:05;4.30;89.40
21108;DHT22;10712;52.944;9.098;2024-01-27T03:14:31;4.30;89.40
21108;DHT22;10712;52.944;9.098;2024-01-27T03:16:58;4.20;89.40
21108;DHT22;10712;52.944;9.098;2024-01-27T03:19:24;4.20;89.40
21108;DHT22;10712;52.944;9.098;2024-01-27T03:21:50;4.20;89.60
21108;DHT22;10712;52.944;9.098;2024-01-27T03:24:15;4.20;89.60
21108;DHT22;10712;52.944;9.098;2024-01-27T03:26:41;4.20;89.60
21108;DHT22;10712;52.944;9.098;2024-01-27T03:29:07;4.20;89.60
21108;DHT22;10712;52.944;9.098;2024-01-27T03:31:33;4.20;89.60
21108;DHT22;10712;52.944;9.098;2024-01-27T03:34:00;4.10;89.70
21108;DHT22;10712;52.944;9.098;2024-01-27T03:36:26;4.10;89.70
21108;DHT22;10712;52.944;9.098;2024-01-27T03:38:53;4.10;89.80
21108;DHT22;10712;52.944;9.098;2024-01-27T03:41:20;4.10;89.80
21108;DHT22;10712;52.944;9.098;2024-01-27T03:43:46;4.10;89.90
21108;DHT22;10712;52.944;9.098;2024-01-27T03:46:12;4.10;90.00
21108;DHT22;10712;52.944;9.098;2024-01-27T03:48:38;4.10;89.90
21108;DHT22;10712;52.944;9.098;2024-01-27T03:51:03;4.10;89.90
21108;DHT22;10712;52.944;9.098;2024-01-27T03:53:29;4.00;90.00
21108;DHT22;10712;52.944;9.098;2024-01-27T03:55:55;4.00;90.00
21108;DHT22;10712;52.944;9.098;2024-01-27T03:58:24;4.00;90.00
21108;DHT22;10712;52.944;9.098;2024-01-27T04:00:51;4.00;90.00
21108;DHT22;10712;52.944;9.098;2024-01-27T04:03:17;4.00;90.10
21108;DHT22;10712;52.944;9.098;2024-01-27T04:05:43;4.00;90.10
21108;DHT22;10712;52.944;9.098;2024-01-27T04:08:08;4.00;90.20
21108;DHT22;10712;52.944;9.098;2024-01-27T04:10:34;3.90;90.30
21108;DHT22;10712;52.944;9.098;2024-01-27T04:13:01;3.90;90.30
21108;DHT22;10712;52.944;9.098;2024-01-27T04:15:27;3.90;90.30
21108;DHT22;10712;52.944;9.098;2024-01-27T04:17:53;3.90;90.40
21108;DHT22;10712;52.944;9.098;2024-01-27T04:20:20;3.90;90.40
21108;DHT22;10712;52.944;9.098;2024-01-27T04:22:45;3.90;90.40
21108;DHT22;10712;52.944;9.098;2024-01-27T04:25:11;3.90;90.30
21108;DHT22;10712;52.944;9.098;2024-01-27T04:27:38;3.90;90.30
21108;DHT22;10712;52.944;9.098;2024-01-27T04:30:08;3.90;90.40
21108;DHT22;10712;52.944;9.098;2024-01-27T04:32:36;3.90;90.50
21108;DHT22;10712;52.944;9.098;2024-01-27T04:35:01;3.90;90.40
21108;DHT22;10712;52.944;9.098;2024-01-27T04:37:28;3.90;90.40
21108;DHT22;10712;52.944;9.098;2024-01-27T04:39:54;3.90;90.30
21108;DHT22;10712;52.944;9.098;2024-01-27T04:42:20;3.90;90.40
21108;DHT22;10712;52.944;9.098;2024-01-27T04:44:46;3.90;90.40
21108;DHT22;10712;52.944;9.098;2024-01-27T04:47:12;3.90;90.40
21108;DHT22;10712;52.944;9.098;2024-01-27T04:49:38;3.90;90.40
21108;DHT22;10712;52.944;9.098;2024-01-27T04:52:03;3.90;90.40
21108;DHT22;10712;52.944;9.098;2024-01-27T04:54:29;3.90;90.40
21108;DHT22;10712;52.944;9.098;2024-01-27T04:56:55;3.90;90.40
21108;DHT22;10712;52.944;9.098;2024-01-27T04:59:21;3.90;90.50
21108;DHT22;10712;52.944;9.098;2024-01-27T05:01:47;3.90;90.40
21108;DHT22;10712;52.944;9.098;2024-01-27T05:04:13;3.90;90.40
21108;DHT22;10712;52.944;9.098;2024-01-27T05:06:44;3.90;90.30
21108;DHT22;10712;52.944;9.098;2024-01-27T05:09:11;3.80;90.30
21108;DHT22;10712;52.944;9.098;2024-01-27T05:11:37;3.80;90.20
21108;DHT22;10712;52.944;9.098;2024-01-27T05:14:03;3.80;90.00
21108;DHT22;10712;52.944;9.098;2024-01-27T05:16:29;3.70;90.20
21108;DHT22;10712;52.944;9.098;2024-01-27T05:18:55;3.70;90.30
21108;DHT22;10712;52.944;9.098;2024-01-27T05:21:21;3.70;90.30
21108;DHT22;10712;52.944;9.098;2024-01-27T05:23:47;3.60;90.30
21108;DHT22;10712;52.944;9.098;2024-01-27T05:26:13;3.60;90.30
21108;DHT22;10712;52.944;9.098;2024-01-27T05:28:40;3.60;90.30
21108;DHT22;10712;52.944;9.098;2024-01-27T05:31:09;3.60;90.40
21108;DHT22;10712;52.944;9.098;2024-01-27T05:33:35;3.60;90.40
21108;DHT22;10712;52.944;9.098;2024-01-27T05:36:02;3.60;90.50
21108;DHT22;10712;52.944;9.098;2024-01-27T05:38:28;3.60;90.50
21108;DHT22;10712;52.944;9.098;2024-01-27T05:40:55;3.50;90.30
21108;DHT22;10712;52.944;9.098;2024-01-27T05:43:21;3.50;90.50
21108;DHT22;10712;52.944;9.098;2024-01-27T05:45:48;3.50;90.50
21108;DHT22;10712;52.944;9.098;2024-01-27T05:48:14;3.50;90.40
21108;DHT22;10712;52.944;9.098;2024-01-27T05:50:42;3.50;90.50
21108;DHT22;10712;52.944;9.098;2024-01-27T05:53:08;3.50;90.50
21108;DHT22;10712;52.944;9.098;2024-01-27T05:55:34;3.50;90.50
21108;DHT22;10712;52.944;9.098;2024-01-27T05:58:00;3.40;90.50
21108;DHT22;10712;52.944;9.098;2024-01-27T06:00:25;3.40;90.60
21108;DHT22;10712;52.944;9.098;2024-01-27T06:02:51;3.40;90.50
21108;DHT22;10712;52.944;9.098;2024-01-27T06:05:17;3.40;90.60
21108;DHT22;10712;52.944;9.098;2024-01-27T06:07:43;3.40;90.60
21108;DHT22;10712;52.944;9.098;2024-01-27T06:10:09;3.40;90.60
21108;DHT22;10712;52.944;9.098;2024-01-27T06:12:37;3.40;90.60
21108;DHT22;10712;52.944;9.098;2024-01-27T06:15:03;3.40;90.60
21108;DHT22;10712;52.944;9.098;2024-01-27T06:17:29;3.30;90.20
21108;DHT22;10712;52.944;9.098;2024-01-27T06:19:55;3.30;90.40
21108;DHT22;10712;52.944;9.098;2024-01-27T06:22:21;3.30;90.50
21108;DHT22;10712;52.944;9.098;2024-01-27T06:24:47;3.30;90.60
21108;DHT22;10712;52.944;9.098;2024-01-27T06:27:12;3.30;90.60
21108;DHT22;10712;52.944;9.098;2024-01-27T06:29:38;3.20;90.50
21108;DHT22;10712;52.944;9.098;2024-01-27T06:32:05;3.20;90.60
21108;DHT22;10712;52.944;9.098;2024-01-27T06:34:32;3.20;90.70
21108;DHT22;10712;52.944;9.098;2024-01-27T06:36:58;3.20;90.70
21108;DHT22;10712;52.944;9.098;2024-01-27T06:39:24;3.20;90.80
21108;DHT22;10712;52.944;9.098;2024-01-27T06:41:50;3.20;90.80
21108;DHT22;10712;52.944;9.098;2024-01-27T06:44:16;3.20;90.90
21108;DHT22;10712;52.944;9.098;2024-01-27T06:46:41;3.20;90.90
21108;DHT22;10712;52.944;9.098;2024-01-27T06:49:10;3.20;90.80
21108;DHT22;10712;52.944;9.098;2024-01-27T06:51:36;3.20;90.90
21108;DHT22;10712;52.944;9.098;2024-01-27T06:54:01;3.10;90.90
21108;DHT22;10712;52.944;9.098;2024-01-27T06:56:27;3.10;90.90
21108;DHT22;10712;52.944;9.098;2024-01-27T06:58:53;3.10;90.90
21108;DHT22;10712;52.944;9.098;2024-01-27T07:01:19;3.10;90.90
21108;DHT22;10712;52.944;9.098;2024-01-27T07:03:44;3.10;90.90
21108;DHT22;10712;52.944;9.098;2024-01-27T07:06:10;3.10;90.90
21108;DHT22;10712;52.944;9.098;2024-01-27T07:08:36;3.10;91.00
21108;DHT22;10712;52.944;9.098;2024-01-27T07:11:02;3.00;91.00
21108;DHT22;10712;52.944;9.098;2024-01-27T07:13:28;3.10;91.10
21108;DHT22;10712;52.944;9.098;2024-01-27T07:15:56;3.10;91.00
21108;DHT22;10712;52.944;9.098;2024-01-27T07:18:23;3.10;91.00
21108;DHT22;10712;52.944;9.098;2024-01-27T07:20:49;3.00;91.00
21108;DHT22;10712;52.944;9.098;2024-01-27T07:23:16;3.10;91.10
21108;DHT22;10712;52.944;9.098;2024-01-27T07:25:43;3.10;91.10
21108;DHT22;10712;52.944;9.098;2024-01-27T07:28:09;3.10;91.10
21108;DHT22;10712;52.944;9.098;2024-01-27T07:30:35;3.10;91.20
21108;DHT22;10712;52.944;9.098;2024-01-27T07:33:01;3.10;91.20
21108;DHT22;10712;52.944;9.098;2024-01-27T07:35:27;3.10;91.20
21108;DHT22;10712;52.944;9.098;2024-01-27T07:37:52;3.00;91.20
21108;DHT22;10712;52.944;9.098;2024-01-27T07:40:19;3.00;91.30
21108;DHT22;10712;52.944;9.098;2024-01-27T07:42:45;3.00;91.30
21108;DHT22;10712;52.944;9.098;2024-01-27T07:45:11;3.00;91.20
21108;DHT22;10712;52.944;9.098;2024-01-27T07:47:37;3.00;91.20
21108;DHT22;10712;52.944;9.098;2024-01-27T07:50:03;3.00;91.20
21108;DHT22;10712;52.944;9.098;2024-01-27T07:52:30;2.90;91.30
21108;DHT22;10712;52.944;9.098;2024-01-27T07:54:55;2.90;91.30
21108;DHT22;10712;52.944;9.098;2024-01-27T07:57:21;2.90;91.40
21108;DHT22;10712;52.944;9.098;2024-01-27T07:59:47;2.90;91.40
21108;DHT22;10712;52.944;9.098;2024-01-27T08:02:13;2.90;91.40
21108;DHT22;10712;52.944;9.098;2024-01-27T08:04:39;2.90;91.50
21108;DHT22;10712;52.944;9.098;2024-01-27T08:07:04;3.00;91.50
21108;DHT22;10712;52.944;9.098;2024-01-27T08:09:35;3.00;91.60
21108;DHT22;10712;52.944;9.098;2024-01-27T08:12:03;3.00;91.60
21108;DHT22;10712;52.944;9.098;2024-01-27T08:14:29;3.00;91.60
21108;DHT22;10712;52.944;9.098;2024-01-27T08:16:56;3.00;91.70
21108;DHT22;10712;52.944;9.098;2024-01-27T08:19:24;3.10;91.70
21108;DHT22;10712;52.944;9.098;2024-01-27T08:21:50;3.10;91.60
21108;DHT22;10712;52.944;9.098;2024-01-27T08:24:16;3.10;91.70
21108;DHT22;10712;52.944;9.098;2024-01-27T08:26:42;3.20;91.70
21108;DHT22;10712;52.944;9.098;2024-01-27T08:29:10;3.20;91.60
21108;DHT22;10712;52.944;9.098;2024-01-27T08:31:36;3.20;91.50
21108;DHT22;10712;52.944;9.098;2024-01-27T08:34:05;3.20;91.50
21108;DHT22;10712;52.944;9.098;2024-01-27T08:36:30;3.30;91.60
21108;DHT22;10712;52.944;9.098;2024-01-27T08:38:56;3.30;91.70
21108;DHT22;10712;52.944;9.098;2024-01-27T08:41:22;3.30;91.70
21108;DHT22;10712;52.944;9.098;2024-01-27T08:43:48;3.30;91.70
21108;DHT22;10712;52.944;9.098;2024-01-27T08:46:14;3.40;91.80
21108;DHT22;10712;52.944;9.098;2024-01-27T08:48:41;3.50;91.80
21108;DHT22;10712;52.944;9.098;2024-01-27T08:51:10;3.50;91.80
21108;DHT22;10712;52.944;9.098;2024-01-27T08:53:36;3.50;91.80
21108;DHT22;10712;52.944;9.098;2024-01-27T08:56:02;3.60;91.80
21108;DHT22;10712;52.944;9.098;2024-01-27T08:58:27;3.60;91.70
21108;DHT22;10712;52.944;9.098;2024-01-27T09:00:53;3.60;91.80
21108;DHT22;10712;52.944;9.098;2024-01-27T09:03:19;3.60;91.80
21108;DHT22;10712;52.944;9.098;2024-01-27T09:05:48;3.70;91.80
21108;DHT22;10712;52.944;9.098;2024-01-27T09:08:14;3.80;91.60
21108;DHT22;10712;52.944;9.098;2024-01-27T09:10:41;3.80;91.60
21108;DHT22;10712;52.944;9.098;2024-01-27T09:13:07;3.90;91.50
21108;DHT22;10712;52.944;9.098;2024-01-27T09:15:33;3.90;91.40
21108;DHT22;10712;52.944;9.098;2024-01-27T09:17:59;3.90;91.30
21108;DHT22;10712;52.944;9.098;2024-01-27T09:20:24;3.90;91.40
21108;DHT22;10712;52.944;9.098;2024-01-27T09:22:51;4.00;91.40
21108;DHT22;10712;52.944;9.098;2024-01-27T09:25:17;4.00;91.30
21108;DHT22;10712;52.944;9.098;2024-01-27T09:27:43;4.00;91.30
21108;DHT22;10712;52.944;9.098;2024-01-27T09:30:09;4.00;91.30
21108;DHT22;10712;52.944;9.098;2024-01-27T09:32:35;4.10;91.20
21108;DHT22;10712;52.944;9.098;2024-01-27T09:35:01;4.10;91.30
21108;DHT22;10712;52.944;9.098;2024-01-27T09:37:27;4.10;91.30
21108;DHT22;10712;52.944;9.098;2024-01-27T09:39:52;4.10;91.30
21108;DHT22;10712;52.944;9.098;2024-01-27T09:42:20;4.20;91.30
21108;DHT22;10712;52.944;9.098;2024-01-27T09:44:48;4.20;91.20
21108;DHT22;10712;52.944;9.098;2024-01-27T09:47:15;4.20;91.20
21108;DHT22;10712;52.944;9.098;2024-01-27T09:49:42;4.30;91.10
21108;DHT22;10712;52.944;9.098;2024-01-27T09:52:09;4.30;91.10
21108;DHT22;10712;52.944;9.098;2024-01-27T09:54:35;4.30;91.00
21108;DHT22;10712;52.944;9.098;2024-01-27T09:57:02;4.40;91.00
21108;DHT22;10712;52.944;9.098;2024-01-27T09:59:28;4.40;91.00
21108;DHT22;10712;52.944;9.098;2024-01-27T10:01:57;4.40;90.90
21108;DHT22;10712;52.944;9.098;2024-01-27T10:04:25;4.40;90.90
21108;DHT22;10712;52.944;9.098;2024-01-27T10:06:52;4.50;90.90
21108;DHT22;10712;52.944;9.098;2024-01-27T10:09:18;4.50;90.80
21108;DHT22;10712;52.944;9.098;2024-01-27T10:11:47;4.50;90.80
21108;DHT22;10712;52.944;9.098;2024-01-27T10:14:13;4.60;90.60
21108;DHT22;10712;52.944;9.098;2024-01-27T10:16:43;4.70;90.50
21108;DHT22;10712;52.944;9.098;2024-01-27T10:19:17;4.70;90.40
21108;DHT22;10712;52.944;9.098;2024-01-27T10:21:47;4.80;90.40
21108;DHT22;10712;52.944;9.098;2024-01-27T10:24:14;4.80;90.30
21108;DHT22;10712;52.944;9.098;2024-01-27T10:26:40;4.90;90.20
21108;DHT22;10712;52.944;9.098;2024-01-27T10:29:06;4.90;89.90
21108;DHT22;10712;52.944;9.098;2024-01-27T10:31:35;5.00;89.80
21108;DHT22;10712;52.944;9.098;2024-01-27T10:34:04;5.00;89.80
21108;DHT22;10712;52.944;9.098;2024-01-27T10:36:42;5.10;89.80
21108;DHT22;10712;52.944;9.098;2024-01-27T10:39:22;5.10;89.70
21108;DHT22;10712;52.944;9.098;2024-01-27T10:41:50;5.20;89.70
21108;DHT22;10712;52.944;9.098;2024-01-27T10:44:19;5.20;89.60
21108;DHT22;10712;52.944;9.098;2024-01-27T10:46:49;5.20;89.60
21108;DHT22;10712;52.944;9.098;2024-01-27T10:49:16;5.30;89.50
21108;DHT22;10712;52.944;9.098;2024-01-27T10:51:52;5.30;89.20
21108;DHT22;10712;52.944;9.098;2024-01-27T10:54:24;5.40;89.10
21108;DHT22;10712;52.944;9.098;2024-01-27T10:56:55;5.40;89.00
21108;DHT22;10712;52.944;9.098;2024-01-27T10:59:23;5.50;88.90
21108;DHT22;10712;52.944;9.098;2024-01-27T11:01:53;5.50;88.80
21108;DHT22;10712;52.944;9.098;2024-01-27T11:04:20;5.50;88.80
21108;DHT22;10712;52.944;9.098;2024-01-27T11:06:49;5.60;88.90
21108;DHT22;10712;52.944;9.098;2024-01-27T11:09:18;5.60;89.00
21108;DHT22;10712;52.944;9.098;2024-01-27T11:11:45;5.70;89.00
21108;DHT22;10712;52.944;9.098;2024-01-27T11:14:12;5.70;88.80
21108;DHT22;10712;52.944;9.098;2024-01-27T11:16:38;5.70;88.50
21108;DHT22;10712;52.944;9.098;2024-01-27T11:19:11;5.80;88.00
21108;DHT22;10712;52.944;9.098;2024-01-27T11:21:37;5.90;87.70
21108;DHT22;10712;52.944;9.098;2024-01-27T11:24:17;5.90;87.40
21108;DHT22;10712;52.944;9.098;2024-01-27T11:26:44;6.00;87.40
21108;DHT22;10712;52.944;9.098;2024-01-27T11:29:10;6.00;87.40
21108;DHT22;10712;52.944;9.098;2024-01-27T11:31:45;6.10;87.60
21108;DHT22;10712;52.944;9.098;2024-01-27T11:34:11;6.10;87.00
21108;DHT22;10712;52.944;9.098;2024-01-27T11:36:44;6.20;86.90
21108;DHT22;10712;52.944;9.098;2024-01-27T11:39:24;6.20;86.70
21108;DHT22;10712;52.944;9.098;2024-01-27T11:42:05;6.20;86.70
21108;DHT22;10712;52.944;9.098;2024-01-27T11:44:35;6.20;86.60
21108;DHT22;10712;52.944;9.098;2024-01-27T11:47:13;6.20;86.70
21108;DHT22;10712;52.944;9.098;2024-01-27T11:49:42;6.30;86.80
21108;DHT22;10712;52.944;9.098;2024-01-27T11:52:08;6.30;86.80
21108;DHT22;10712;52.944;9.098;2024-01-27T11:54:34;6.30;86.70
21108;DHT22;10712;52.944;9.098;2024-01-27T11:57:01;6.30;86.70
21108;DHT22;10712;52.944;9.098;2024-01-27T11:59:27;6.40;86.80
21108;DHT22;10712;52.944;9.098;2024-01-27T12:01:53;6.40;86.60
21108;DHT22;10712;52.944;9.098;2024-01-27T12:04:18;6.50;86.50
21108;DHT22;10712;52.944;9.098;2024-01-27T12:06:47;6.50;86.20
21108;DHT22;10712;52.944;9.098;2024-01-27T12:09:13;6.50;86.10
21108;DHT22;10712;52.944;9.098;2024-01-27T12:11:42;6.50;86.10
21108;DHT22;10712;52.944;9.098;2024-01-27T12:14:08;6.60;85.80
21108;DHT22;10712;52.944;9.098;2024-01-27T12:16:34;6.60;85.60
21108;DHT22;10712;52.944;9.098;2024-01-27T12:19:00;6.70;85.70
21108;DHT22;10712;52.944;9.098;2024-01-27T12:21:26;6.70;85.80
21108;DHT22;10712;52.944;9.098;2024-01-27T12:23:58;6.70;85.80
21108;DHT22;10712;52.944;9.098;2024-01-27T12:26:29;6.80;85.90
21108;DHT22;10712;52.944;9.098;2024-01-27T12:28:56;6.80;85.70
21108;DHT22;10712;52.944;9.098;2024-01-27T12:31:23;6.80;85.70
21108;DHT22;10712;52.944;9.098;2024-01-27T12:33:55;6.90;85.70
21108;DHT22;10712;52.944;9.098;2024-01-27T12:36:22;6.90;85.40
21108;DHT22;10712;52.944;9.098;2024-01-27T12:39:02;7.00;85.10
21108;DHT22;10712;52.944;9.098;2024-01-27T12:41:31;7.10;84.90
21108;DHT22;10712;52.944;9.098;2024-01-27T12:43:59;7.10;84.80
21108;DHT22;10712;52.944;9.098;2024-01-27T12:46:25;7.20;84.70
21108;DHT22;10712;52.944;9.098;2024-01-27T12:48:51;7.20;84.50
21108;DHT22;10712;52.944;9.098;2024-01-27T12:51:17;7.30;83.50
21108;DHT22;10712;52.944;9.098;2024-01-27T12:53:43;7.30;83.60
21108;DHT22;10712;52.944;9.098;2024-01-27T12:56:10;7.40;83.60
21108;DHT22;10712;52.944;9.098;2024-01-27T12:58:37;7.50;83.10
21108;DHT22;10712;52.944;9.098;2024-01-27T13:01:04;7.50;82.70
21108;DHT22;10712;52.944;9.098;2024-01-27T13:03:31;7.50;82.50
21108;DHT22;10712;52.944;9.098;2024-01-27T13:05:57;7.50;82.60
21108;DHT22;10712;52.944;9.098;2024-01-27T13:08:23;7.60;83.00
21108;DHT22;10712;52.944;9.098;2024-01-27T13:10:50;7.60;82.40
21108;DHT22;10712;52.944;9.098;2024-01-27T13:13:16;7.70;82.20
21108;DHT22;10712;52.944;9.098;2024-01-27T13:15:42;7.70;82.10
21108;DHT22;10712;52.944;9.098;2024-01-27T13:18:09;7.80;81.90
21108;DHT22;10712;52.944;9.098;2024-01-27T13:20:36;7.80;82.00
21108;DHT22;10712;52.944;9.098;2024-01-27T13:23:02;7.80;81.30
21108;DHT22;10712;52.944;9.098;2024-01-27T13:25:28;7.90;81.20
21108;DHT22;10712;52.944;9.098;2024-01-27T13:27:54;7.90;81.10
21108;DHT22;10712;52.944;9.098;2024-01-27T13:30:21;7.90;81.30
21108;DHT22;10712;52.944;9.098;2024-01-27T13:32:47;7.90;81.30
21108;DHT22;10712;52.944;9.098;2024-01-27T13:35:13;8.00;81.30
21108;DHT22;10712;52.944;9.098;2024-01-27T13:37:39;8.00;81.20
21108;DHT22;10712;52.944;9.098;2024-01-27T13:40:05;8.00;81.20
21108;DHT22;10712;52.944;9.098;2024-01-27T13:42:33;8.00;81.00
21108;DHT22;10712;52.944;9.098;2024-01-27T13:44:59;8.00;80.80
21108;DHT22;10712;52.944;9.098;2024-01-27T13:47:25;8.00;80.80
21108;DHT22;10712;52.944;9.098;2024-01-27T13:49:51;8.00;80.80
21108;DHT22;10712;52.944;9.098;2024-01-27T13:52:17;8.00;80.80
21108;DHT22;10712;52.944;9.098;2024-01-27T13:54:43;8.00;80.90
21108;DHT22;10712;52.944;9.098;2024-01-27T13:57:09;8.00;80.80
21108;DHT22;10712;52.944;9.098;2024-01-27T13:59:36;8.00;80.80
21108;DHT22;10712;52.944;9.098;2024-01-27T14:02:03;8.00;80.90
21108;DHT22;10712;52.944;9.098;2024-01-27T14:04:29;8.00;80.80
21108;DHT22;10712;52.944;9.098;2024-01-27T14:06:55;8.00;81.10
21108;DHT22;10712;52.944;9.098;2024-01-27T14:09:23;8.00;81.10
21108;DHT22;10712;52.944;9.098;2024-01-27T14:11:49;8.00;80.80
21108;DHT22;10712;52.944;9.098;2024-01-27T14:14:15;7.90;80.90
21108;DHT22;10712;52.944;9.098;2024-01-27T14:16:46;7.90;81.00
21108;DHT22;10712;52.944;9.098;2024-01-27T14:19:12;7.90;80.90
21108;DHT22;10712;52.944;9.098;2024-01-27T14:21:38;7.90;81.00
21108;DHT22;10712;52.944;9.098;2024-01-27T14:24:06;7.90;81.10
21108;DHT22;10712;52.944;9.098;2024-01-27T14:26:34;7.90;81.00
21108;DHT22;10712;52.944;9.098;2024-01-27T14:29:00;7.90;81.00
21108;DHT22;10712;52.944;9.098;2024-01-27T14:31:25;7.90;81.00
21108;DHT22;10712;52.944;9.098;2024-01-27T14:33:51;7.90;80.80
21108;DHT22;10712;52.944;9.098;2024-01-27T14:36:17;7.90;80.90
21108;DHT22;10712;52.944;9.098;2024-01-27T14:38:43;7.90;80.80
21108;DHT22;10712;52.944;9.098;2024-01-27T14:41:09;7.80;80.90
21108;DHT22;10712;52.944;9.098;2024-01-27T14:43:38;7.80;80.60
21108;DHT22;10712;52.944;9.098;2024-01-27T14:46:04;7.80;80.50
21108;DHT22;10712;52.944;9.098;2024-01-27T14:48:30;7.80;80.20
21108;DHT22;10712;52.944;9.098;2024-01-27T14:50:57;7.80;80.10
21108;DHT22;10712;52.944;9.098;2024-01-27T14:53:28;7.80;80.20
21108;DHT22;10712;52.944;9.098;2024-01-27T14:55:55;7.70;80.40
21108;DHT22;10712;52.944;9.098;2024-01-27T14:58:22;7.70;80.30
21108;DHT22;10712;52.944;9.098;2024-01-27T15:00:48;7.70;80.40
21108;DHT22;10712;52.944;9.098;2024-01-27T15:03:24;7.60;80.50
21108;DHT22;10712;52.944;9.098;2024-01-27T15:05:50;7.60;80.60
21108;DHT22;10712;52.944;9.098;2024-01-27T15:08:17;7.60;80.30
21108;DHT22;10712;52.944;9.098;2024-01-27T15:10:44;7.60;80.50
21108;DHT22;10712;52.944;9.098;2024-01-27T15:13:10;7.50;80.60
21108;DHT22;10712;52.944;9.098;2024-01-27T15:15:37;7.50;80.80
21108;DHT22;10712;52.944;9.098;2024-01-27T15:18:04;7.40;80.90
21108;DHT22;10712;52.944;9.098;2024-01-27T15:20:32;7.40;81.10
21108;DHT22;10712;52.944;9.098;2024-01-27T15:22:58;7.30;81.30
21108;DHT22;10712;52.944;9.098;2024-01-27T15:25:23;7.30;81.50
21108;DHT22;10712;52.944;9.098;2024-01-27T15:27:50;7.20;81.70
21108;DHT22;10712;52.944;9.098;2024-01-27T15:30:17;7.20;81.90
21108;DHT22;10712;52.944;9.098;2024-01-27T15:32:49;7.20;82.00
21108;DHT22;10712;52.944;9.098;2024-01-27T15:35:15;7.10;82.10
21108;DHT22;10712;52.944;9.098;2024-01-27T15:37:41;7.10;82.20
21108;DHT22;10712;52.944;9.098;2024-01-27T15:40:08;7.00;82.40
21108;DHT22;10712;52.944;9.098;2024-01-27T15:42:38;7.00;82.50